Time;durP1;ratioP1;P1;durP2;ratioP2;P2;SDS_P1;SDS_P2;PMS_P1;PMS_P2;Temp;Humidity;BMP_temperature;BMP_pressure;BME280_temperature;BME280_humidity;BME280_pressure;Samples;Min_cycle;Max_cycle;Signal;HPM_P1;HPM_P2
2022/08/04 00:01:07;;;;;;;;;;;19.20;99.90;;;;;;5096567;28;19909;-68
2022/08/04 00:03:46;;;;;;;;;;;19.20;99.90;;;;;;5096436;28;19947;-68
2022/08/04 00:06:16;;;;;;;;;;;19.20;99.90;;;;;;5095974;28;20397;-68
2022/08/04 00:08:48;;;;;;;;;;;19.20;99.90;;;;;;5096110;28;19912;-68
2022/08/04 00:11:19;;;;;;;;;;;19.20;99.90;;;;;;5096437;28;19937;-68
2022/08/04 00:13:54;;;;;;;;;;;19.20;99.90;;;;;;5095431;28;20405;-67
2022/08/04 00:16:22;;;;;;;;;;;19.20;99.90;;;;;;5066782;28;19940;-68
2022/08/04 00:18:53;;;;;;;;;;;19.30;99.90;;;;;;5072970;28;20016;-68
2022/08/04 00:21:21;;;;;;;;;;;19.30;99.90;;;;;;5076049;28;19908;-68
2022/08/04 00:23:48;;;;;;;;;;;19.40;99.90;;;;;;5075820;28;20339;-68
2022/08/04 00:26:16;;;;;;;;;;;19.40;99.90;;;;;;5075385;28;19916;-68
2022/08/04 00:28:43;;;;;;;;;;;19.40;99.90;;;;;;5075600;28;19912;-68
2022/08/04 00:31:10;;;;;;;;;;;19.40;99.90;;;;;;5075568;28;20009;-68
2022/08/04 00:33:38;;;;;;;;;;;19.40;99.90;;;;;;5075724;28;19909;-68
2022/08/04 00:36:05;;;;;;;;;;;19.50;99.90;;;;;;5075437;28;19963;-68
2022/08/04 00:38:31;;;;;;;;;;;19.50;99.90;;;;;;5075643;28;20007;-68
2022/08/04 00:40:58;;;;;;;;;;;19.60;99.90;;;;;;5075618;28;19914;-69
2022/08/04 00:43:31;;;;;;;;;;;19.60;99.90;;;;;;5075345;28;19909;-68
2022/08/04 00:45:58;;;;;;;;;;;19.60;99.90;;;;;;5075274;28;19920;-68
2022/08/04 00:48:30;;;;;;;;;;;19.60;99.90;;;;;;5075246;28;19908;-68
2022/08/04 00:51:10;;;;;;;;;;;19.60;99.90;;;;;;5075081;28;20282;-68
2022/08/04 00:53:52;;;;;;;;;;;19.60;99.90;;;;;;5073997;28;20333;-68
2022/08/04 00:56:33;;;;;;;;;;;19.60;99.90;;;;;;5074854;28;20322;-68
2022/08/04 00:59:03;;;;;;;;;;;19.60;99.90;;;;;;5074873;28;19955;-68
2022/08/04 01:01:40;;;;;;;;;;;19.60;99.90;;;;;;5075171;28;19908;-68
2022/08/04 01:04:16;;;;;;;;;;;19.70;99.90;;;;;;5074957;28;19943;-68
2022/08/04 01:07:08;;;;;;;;;;;19.60;99.90;;;;;;5074900;28;19926;-68
2022/08/04 01:09:35;;;;;;;;;;;19.70;99.90;;;;;;5074927;28;19916;-69
2022/08/04 01:12:20;;;;;;;;;;;19.70;99.90;;;;;;5074723;28;20021;-69
2022/08/04 01:15:02;;;;;;;;;;;19.70;99.90;;;;;;5074820;28;19912;-69
2022/08/04 01:17:32;;;;;;;;;;;19.70;99.90;;;;;;5074839;28;19908;-68
2022/08/04 01:20:09;;;;;;;;;;;19.70;99.90;;;;;;5074721;28;19908;-68
2022/08/04 01:22:47;;;;;;;;;;;19.70;99.90;;;;;;5074655;28;19909;-68
2022/08/04 01:25:32;;;;;;;;;;;19.70;99.90;;;;;;5073360;28;19913;-68
2022/08/04 01:28:19;;;;;;;;;;;19.70;99.90;;;;;;5074507;28;20378;-68
2022/08/04 01:30:48;;;;;;;;;;;19.70;99.90;;;;;;5067069;28;20367;-68
2022/08/04 01:33:17;;;;;;;;;;;19.70;99.90;;;;;;5074503;28;20003;-68
2022/08/04 01:35:56;;;;;;;;;;;19.70;99.90;;;;;;5074286;28;19912;-68
2022/08/04 01:38:33;;;;;;;;;;;19.70;99.90;;;;;;5074066;28;19913;-68
2022/08/04 01:41:02;;;;;;;;;;;19.70;99.90;;;;;;5074406;28;19916;-68
2022/08/04 01:43:29;;;;;;;;;;;19.70;99.90;;;;;;5074173;28;19913;-69
2022/08/04 01:46:03;;;;;;;;;;;19.70;99.90;;;;;;5074016;28;19927;-68
2022/08/04 01:48:30;;;;;;;;;;;19.70;99.90;;;;;;5074346;28;19908;-68
2022/08/04 01:50:58;;;;;;;;;;;19.70;99.90;;;;;;5074090;28;19908;-69
2022/08/04 01:53:32;;;;;;;;;;;19.70;99.90;;;;;;5074011;28;19908;-68
2022/08/04 01:56:00;;;;;;;;;;;19.70;99.90;;;;;;5106585;28;19908;-69
2022/08/04 01:58:29;;;;;;;;;;;19.70;99.90;;;;;;5073902;28;19908;-68
2022/08/04 02:00:58;;;;;;;;;;;19.70;99.90;;;;;;5073828;28;19915;-68
2022/08/04 02:03:25;;;;;;;;;;;19.70;99.90;;;;;;5073741;28;20358;-69
2022/08/04 02:05:54;;;;;;;;;;;19.60;99.90;;;;;;5073655;28;19970;-68
2022/08/04 02:08:27;;;;;;;;;;;19.70;99.90;;;;;;5073560;28;19990;-68
2022/08/04 02:11:00;;;;;;;;;;;19.70;99.90;;;;;;5073776;28;19954;-68
2022/08/04 02:13:30;;;;;;;;;;;19.70;99.90;;;;;;5073470;28;20376;-68
2022/08/04 02:15:57;;;;;;;;;;;19.70;99.90;;;;;;5073581;28;19909;-68
2022/08/04 02:18:27;;;;;;;;;;;19.60;99.90;;;;;;5073509;28;19908;-68
2022/08/04 02:20:58;;;;;;;;;;;19.70;99.90;;;;;;5073706;28;19909;-68
2022/08/04 02:23:44;;;;;;;;;;;19.60;99.90;;;;;;5073486;28;19915;-69
2022/08/04 02:26:13;;;;;;;;;;;19.60;99.90;;;;;;5073422;28;19923;-68
2022/08/04 02:28:46;;;;;;;;;;;19.60;99.90;;;;;;5073394;28;20328;-68
2022/08/04 02:31:31;;;;;;;;;;;19.60;99.90;;;;;;5073395;28;19912;-68
2022/08/04 02:34:05;;;;;;;;;;;19.60;99.90;;;;;;5073570;28;20270;-69
2022/08/04 02:36:39;;;;;;;;;;;19.60;99.90;;;;;;5073230;28;19912;-69
2022/08/04 02:39:09;;;;;;;;;;;19.50;99.90;;;;;;5073493;28;19908;-68
2022/08/04 02:41:36;;;;;;;;;;;19.50;99.90;;;;;;5073413;28;19991;-69
2022/08/04 02:44:04;;;;;;;;;;;19.50;99.90;;;;;;5072696;28;19924;-69
2022/08/04 02:46:37;;;;;;;;;;;19.50;99.90;;;;;;5072649;28;21331;-68
2022/08/04 02:49:05;;;;;;;;;;;19.50;99.90;;;;;;5073390;28;19919;-69
2022/08/04 02:51:36;;;;;;;;;;;19.50;99.90;;;;;;5073229;28;19908;-69
2022/08/04 02:54:03;;;;;;;;;;;19.50;99.90;;;;;;5073087;28;19913;-69
2022/08/04 02:56:31;;;;;;;;;;;19.50;99.90;;;;;;5073403;28;19909;-68
2022/08/04 02:59:05;;;;;;;;;;;19.50;99.90;;;;;;5073232;28;19931;-69
2022/08/04 03:01:32;;;;;;;;;;;19.50;99.90;;;;;;5073004;28;19915;-68
2022/08/04 03:04:02;;;;;;;;;;;19.60;99.90;;;;;;5073190;28;20274;-68
2022/08/04 03:06:43;;;;;;;;;;;19.60;99.90;;;;;;5072934;28;19916;-68
2022/08/04 03:09:10;;;;;;;;;;;19.60;99.90;;;;;;5073250;28;19966;-68
2022/08/04 03:11:45;;;;;;;;;;;19.60;99.90;;;;;;5072917;28;19913;-68
2022/08/04 03:14:17;;;;;;;;;;;19.60;99.90;;;;;;5072708;28;19955;-68
2022/08/04 03:16:56;;;;;;;;;;;19.60;99.90;;;;;;5072856;28;19908;-68
2022/08/04 03:19:32;;;;;;;;;;;19.60;99.90;;;;;;5073015;28;19912;-68
2022/08/04 03:22:13;;;;;;;;;;;19.60;99.90;;;;;;5072799;28;19909;-68
2022/08/04 03:24:50;;;;;;;;;;;19.60;99.90;;;;;;5072936;28;19954;-68
2022/08/04 03:27:20;;;;;;;;;;;19.60;99.90;;;;;;5072678;28;19908;-68
2022/08/04 03:30:04;;;;;;;;;;;19.70;99.90;;;;;;5072830;28;19943;-69
2022/08/04 03:32:52;;;;;;;;;;;19.60;99.90;;;;;;5072908;28;19958;-68
2022/08/04 03:35:28;;;;;;;;;;;19.60;99.90;;;;;;5072797;28;19913;-68
2022/08/04 03:38:04;;;;;;;;;;;19.60;99.90;;;;;;5072832;28;19908;-68
2022/08/04 03:40:39;;;;;;;;;;;19.60;99.90;;;;;;5072872;28;19912;-68
2022/08/04 03:43:24;;;;;;;;;;;19.50;99.90;;;;;;5072656;28;20348;-69
2022/08/04 03:46:00;;;;;;;;;;;19.50;99.90;;;;;;5072564;28;19968;-69
2022/08/04 03:48:53;;;;;;;;;;;19.60;99.90;;;;;;5074293;28;20363;-69
2022/08/04 03:54:32;;;;;;;;;;;19.60;99.90;;;;;;5076279;28;19954;-69
2022/08/04 03:57:08;;;;;;;;;;;19.70;99.90;;;;;;5076404;28;19944;-68
2022/08/04 03:59:43;;;;;;;;;;;19.80;99.90;;;;;;5076326;28;19908;-68
2022/08/04 04:02:34;;;;;;;;;;;19.80;99.90;;;;;;5076069;28;19935;-68
2022/08/04 04:05:04;;;;;;;;;;;19.80;99.90;;;;;;5076217;28;19917;-68
2022/08/04 04:07:34;;;;;;;;;;;19.90;99.90;;;;;;5076088;28;19914;-68
2022/08/04 04:10:00;;;;;;;;;;;19.90;99.90;;;;;;5076091;28;20327;-69
2022/08/04 04:12:30;;;;;;;;;;;19.90;99.90;;;;;;5075793;28;20279;-69
2022/08/04 04:14:59;;;;;;;;;;;19.90;99.90;;;;;;5075893;28;19912;-69
2022/08/04 04:17:55;;;;;;;;;;;19.90;99.90;;;;;;5076021;28;19915;-69
2022/08/04 04:20:40;;;;;;;;;;;20.00;99.90;;;;;;5066678;28;19995;-68
2022/08/04 04:23:07;;;;;;;;;;;20.00;99.90;;;;;;5075801;28;19916;-69
2022/08/04 04:25:51;;;;;;;;;;;20.00;99.90;;;;;;5075711;28;19927;-68
2022/08/04 04:28:21;;;;;;;;;;;20.00;99.90;;;;;;5075373;28;19915;-69
2022/08/04 04:31:03;;;;;;;;;;;20.00;99.90;;;;;;5075622;28;19970;-69
2022/08/04 04:33:47;;;;;;;;;;;20.10;99.90;;;;;;5069957;28;19909;-69
2022/08/04 04:36:37;;;;;;;;;;;20.10;99.90;;;;;;5067454;28;19913;-69
2022/08/04 04:39:20;;;;;;;;;;;20.00;99.90;;;;;;5071668;28;19977;-69
2022/08/04 04:42:05;;;;;;;;;;;20.00;99.90;;;;;;5073448;28;20286;-69
2022/08/04 04:44:50;;;;;;;;;;;20.00;99.90;;;;;;5074411;28;19928;-69
2022/08/04 04:47:42;;;;;;;;;;;20.00;99.90;;;;;;5074780;28;19908;-69
2022/08/04 04:50:25;;;;;;;;;;;20.00;99.90;;;;;;5073022;28;19926;-69
2022/08/04 04:53:08;;;;;;;;;;;19.90;99.90;;;;;;5073315;28;19954;-69
2022/08/04 04:55:39;;;;;;;;;;;19.80;99.90;;;;;;5074412;28;19962;-69
2022/08/04 04:58:11;;;;;;;;;;;19.80;99.90;;;;;;5074150;28;19946;-70
2022/08/04 05:00:41;;;;;;;;;;;19.80;99.90;;;;;;5074277;28;19909;-69
2022/08/04 05:03:07;;;;;;;;;;;19.70;99.90;;;;;;5074385;28;19952;-69
2022/08/04 05:05:49;;;;;;;;;;;19.70;99.90;;;;;;5075000;28;19917;-69
2022/08/04 05:08:16;;;;;;;;;;;19.70;99.90;;;;;;5074734;28;20382;-69
2022/08/04 05:10:48;;;;;;;;;;;19.70;99.90;;;;;;5074898;28;20470;-69
2022/08/04 05:13:30;;;;;;;;;;;19.70;99.90;;;;;;5074590;28;19952;-70
2022/08/04 05:16:01;;;;;;;;;;;19.60;99.90;;;;;;5074735;28;19957;-69
2022/08/04 05:18:30;;;;;;;;;;;19.60;99.90;;;;;;5074759;28;19919;-69
2022/08/04 05:21:00;;;;;;;;;;;19.50;99.90;;;;;;5074626;28;19932;-69
2022/08/04 05:23:31;;;;;;;;;;;19.40;99.90;;;;;;5074544;28;19915;-69
2022/08/04 05:26:04;;;;;;;;;;;19.30;99.90;;;;;;5074541;28;19916;-68
2022/08/04 05:28:33;;;;;;;;;;;19.10;99.90;;;;;;5074364;28;20259;-69
2022/08/04 05:31:02;;;;;;;;;;;19.00;99.90;;;;;;5074507;28;20355;-68
2022/08/04 05:33:32;;;;;;;;;;;19.00;99.90;;;;;;5074571;28;19991;-69
2022/08/04 05:36:01;;;;;;;;;;;19.00;99.90;;;;;;5074595;28;19995;-69
2022/08/04 05:38:31;;;;;;;;;;;18.90;99.90;;;;;;5074477;28;19909;-69
2022/08/04 05:40:58;;;;;;;;;;;19.00;99.90;;;;;;5074226;28;19908;-69
2022/08/04 05:43:25;;;;;;;;;;;19.00;99.90;;;;;;5074065;28;19909;-68
2022/08/04 05:45:53;;;;;;;;;;;19.00;99.90;;;;;;5074114;28;19925;-69
2022/08/04 05:48:20;;;;;;;;;;;18.90;99.90;;;;;;5074058;28;19912;-69
2022/08/04 05:50:46;;;;;;;;;;;18.90;99.90;;;;;;5074227;28;20273;-69
2022/08/04 05:53:14;;;;;;;;;;;18.80;99.90;;;;;;5074214;28;19959;-69
2022/08/04 05:55:41;;;;;;;;;;;18.90;99.90;;;;;;5074108;28;19909;-69
2022/08/04 05:58:08;;;;;;;;;;;18.90;99.90;;;;;;5073686;28;20322;-69
2022/08/04 06:00:35;;;;;;;;;;;18.80;99.90;;;;;;5073895;28;19909;-69
2022/08/04 06:03:03;;;;;;;;;;;18.80;99.90;;;;;;5074128;28;20248;-69
2022/08/04 06:05:30;;;;;;;;;;;18.70;99.90;;;;;;5073802;28;19924;-69
2022/08/04 06:07:57;;;;;;;;;;;18.70;99.90;;;;;;5073919;28;19961;-69
2022/08/04 06:10:25;;;;;;;;;;;18.60;99.90;;;;;;5073101;28;20267;-69
2022/08/04 06:12:54;;;;;;;;;;;18.60;99.90;;;;;;5073493;28;19908;-68
2022/08/04 06:15:21;;;;;;;;;;;18.60;99.90;;;;;;5073671;28;19908;-68
2022/08/04 06:17:56;;;;;;;;;;;18.60;99.90;;;;;;5073737;28;19962;-69
2022/08/04 06:20:26;;;;;;;;;;;18.70;99.90;;;;;;5073456;28;19995;-69
2022/08/04 06:22:54;;;;;;;;;;;18.80;99.90;;;;;;5073597;28;19908;-69
2022/08/04 06:25:26;;;;;;;;;;;18.80;99.90;;;;;;5073394;28;19912;-69
2022/08/04 06:27:54;;;;;;;;;;;19.00;99.90;;;;;;5073554;28;19927;-69
2022/08/04 06:30:24;;;;;;;;;;;19.00;99.90;;;;;;5073314;28;19985;-69
2022/08/04 06:32:55;;;;;;;;;;;19.10;99.90;;;;;;5073674;28;19958;-69
2022/08/04 06:35:23;;;;;;;;;;;19.10;99.90;;;;;;5073665;28;20317;-68
2022/08/04 06:37:51;;;;;;;;;;;19.20;99.90;;;;;;5088830;28;19912;-69
2022/08/04 06:40:19;;;;;;;;;;;19.20;99.90;;;;;;5073351;28;19913;-69
2022/08/04 06:42:46;;;;;;;;;;;19.20;99.90;;;;;;5073255;28;20042;-69
2022/08/04 06:45:13;;;;;;;;;;;19.20;99.90;;;;;;5073142;28;19924;-69
2022/08/04 06:47:41;;;;;;;;;;;19.20;99.90;;;;;;5073448;28;19954;-69
2022/08/04 06:50:09;;;;;;;;;;;19.20;99.90;;;;;;5073060;28;19916;-69
2022/08/04 06:52:36;;;;;;;;;;;19.20;99.90;;;;;;5070473;28;19916;-69
2022/08/04 06:55:03;;;;;;;;;;;19.20;99.90;;;;;;5071121;28;19923;-69
2022/08/04 06:57:31;;;;;;;;;;;19.20;99.90;;;;;;5071128;28;19916;-69
2022/08/04 07:00:00;;;;;;;;;;;19.10;99.90;;;;;;5071014;28;19995;-68
2022/08/04 07:02:28;;;;;;;;;;;18.70;99.90;;;;;;5071087;28;19944;-68
2022/08/04 07:04:55;;;;;;;;;;;18.50;99.90;;;;;;5070441;28;20001;-69
2022/08/04 07:07:23;;;;;;;;;;;18.40;99.90;;;;;;5070904;28;20414;-69
2022/08/04 07:09:50;;;;;;;;;;;18.40;99.90;;;;;;5070974;28;19924;-68
2022/08/04 07:12:20;;;;;;;;;;;18.30;99.90;;;;;;5070663;28;19912;-69
2022/08/04 07:14:48;;;;;;;;;;;18.30;99.90;;;;;;5070994;28;19935;-68
2022/08/04 07:17:16;;;;;;;;;;;18.30;99.90;;;;;;5070472;28;19908;-69
2022/08/04 07:19:43;;;;;;;;;;;18.20;99.90;;;;;;5069622;28;19912;-68
2022/08/04 07:22:10;;;;;;;;;;;18.00;99.90;;;;;;5071771;28;20405;-69
2022/08/04 07:24:37;;;;;;;;;;;17.80;99.90;;;;;;5073446;28;19952;-68
2022/08/04 07:27:05;;;;;;;;;;;17.70;99.90;;;;;;5074502;28;19920;-68
2022/08/04 07:29:32;;;;;;;;;;;17.60;99.90;;;;;;5074672;28;19912;-68
2022/08/04 07:31:59;;;;;;;;;;;17.50;99.90;;;;;;5074206;28;19912;-67
2022/08/04 07:34:26;;;;;;;;;;;17.50;99.90;;;;;;5074557;28;19913;-68
2022/08/04 07:36:54;;;;;;;;;;;17.40;99.90;;;;;;5074747;28;19917;-67
2022/08/04 07:42:24;;;;;;;;;;;17.40;99.90;;;;;;5091532;28;19915;-68
2022/08/04 07:50:57;;;;;;;;;;;17.50;99.90;;;;;;5092795;28;20290;-68
2022/08/04 07:53:24;;;;;;;;;;;17.50;99.90;;;;;;5092923;28;19959;-68
2022/08/04 07:58:54;;;;;;;;;;;17.50;99.90;;;;;;5092969;28;19915;-68
2022/08/04 08:01:22;;;;;;;;;;;17.60;99.90;;;;;;5092861;28;19908;-68
2022/08/04 08:03:49;;;;;;;;;;;17.50;99.90;;;;;;5093621;28;19917;-68
2022/08/04 08:06:16;;;;;;;;;;;17.50;99.90;;;;;;5094073;28;19923;-68
2022/08/04 08:08:43;;;;;;;;;;;17.50;99.90;;;;;;5081044;28;19913;-68
2022/08/04 08:11:10;;;;;;;;;;;17.40;99.90;;;;;;5052682;28;19951;-68
2022/08/04 08:13:37;;;;;;;;;;;17.30;99.90;;;;;;5053617;28;19932;-68
2022/08/04 08:16:04;;;;;;;;;;;17.20;99.90;;;;;;5053151;28;19967;-69
2022/08/04 08:18:31;;;;;;;;;;;17.20;99.90;;;;;;5053986;28;19970;-68
2022/08/04 08:20:58;;;;;;;;;;;17.10;99.90;;;;;;5053202;28;19909;-68
2022/08/04 08:23:25;;;;;;;;;;;17.00;99.90;;;;;;5053624;28;19909;-68
2022/08/04 08:25:52;;;;;;;;;;;16.90;99.90;;;;;;5053479;28;19917;-69
2022/08/04 08:28:18;;;;;;;;;;;16.90;99.90;;;;;;5053383;28;19909;-68
2022/08/04 08:30:45;;;;;;;;;;;16.90;99.90;;;;;;5053592;28;20325;-68
2022/08/04 08:33:13;;;;;;;;;;;16.90;99.90;;;;;;5053485;28;19912;-68
2022/08/04 08:35:52;;;;;;;;;;;16.90;99.90;;;;;;5052883;28;19908;-68
2022/08/04 08:38:21;;;;;;;;;;;16.90;99.90;;;;;;5053337;28;19932;-69
2022/08/04 08:40:58;;;;;;;;;;;16.90;99.90;;;;;;5053444;28;19913;-69
2022/08/04 08:43:54;;;;;;;;;;;16.90;99.90;;;;;;5053579;28;19909;-68
2022/08/04 08:46:24;;;;;;;;;;;16.80;99.90;;;;;;5053122;28;19932;-69
2022/08/04 08:49:09;;;;;;;;;;;16.80;99.90;;;;;;5052900;28;19912;-69
2022/08/04 08:51:54;;;;;;;;;;;16.80;99.90;;;;;;5053145;28;20006;-68
2022/08/04 08:54:29;;;;;;;;;;;16.80;99.90;;;;;;5053090;28;19916;-68
2022/08/04 08:57:04;;;;;;;;;;;16.80;99.90;;;;;;5052993;28;19909;-69
2022/08/04 08:59:34;;;;;;;;;;;16.70;99.90;;;;;;5053118;28;19954;-68
2022/08/04 09:02:19;;;;;;;;;;;16.70;99.90;;;;;;5053108;28;19908;-68
2022/08/04 09:04:52;;;;;;;;;;;16.70;99.90;;;;;;5053749;28;19972;-68
2022/08/04 09:07:25;;;;;;;;;;;16.70;99.90;;;;;;5055128;28;19912;-68
2022/08/04 09:10:09;;;;;;;;;;;16.60;99.90;;;;;;5055143;28;20313;-68
2022/08/04 09:12:59;;;;;;;;;;;16.60;99.90;;;;;;5054843;28;20376;-69
2022/08/04 09:15:46;;;;;;;;;;;16.60;99.90;;;;;;5051907;28;19916;-69
2022/08/04 09:18:17;;;;;;;;;;;16.60;99.90;;;;;;5054580;28;19917;-68
2022/08/04 09:20:49;;;;;;;;;;;16.60;99.90;;;;;;5054888;28;20386;-68
2022/08/04 09:23:32;;;;;;;;;;;16.60;99.90;;;;;;5053512;28;19912;-69
2022/08/04 09:26:16;;;;;;;;;;;16.50;99.90;;;;;;5054362;28;19924;-69
2022/08/04 09:29:03;;;;;;;;;;;16.50;99.90;;;;;;5053135;28;19956;-68
2022/08/04 09:31:33;;;;;;;;;;;16.50;99.90;;;;;;5043201;28;20032;-69
2022/08/04 09:34:02;;;;;;;;;;;16.50;99.90;;;;;;5054460;28;19909;-68
2022/08/04 09:36:36;;;;;;;;;;;16.60;99.90;;;;;;5054632;28;19916;-68
2022/08/04 09:39:03;;;;;;;;;;;16.60;99.90;;;;;;5054352;28;19920;-68
2022/08/04 09:41:36;;;;;;;;;;;16.60;99.90;;;;;;5054360;28;19924;-68
2022/08/04 09:44:05;;;;;;;;;;;16.60;99.90;;;;;;5053969;28;19921;-68
2022/08/04 09:46:55;;;;;;;;;;;16.50;99.90;;;;;;5053297;28;19917;-69
2022/08/04 09:49:34;;;;;;;;;;;16.50;99.90;;;;;;5051262;28;19909;-69
2022/08/04 09:52:16;;;;;;;;;;;16.40;99.90;;;;;;5054310;28;19909;-68
2022/08/04 09:54:49;;;;;;;;;;;16.40;99.90;;;;;;5053525;28;20391;-68
2022/08/04 09:57:30;;;;;;;;;;;16.40;99.90;;;;;;5054056;28;19913;-68
2022/08/04 10:00:03;;;;;;;;;;;16.40;99.90;;;;;;5054031;28;20337;-68
2022/08/04 10:02:46;;;;;;;;;;;16.40;99.90;;;;;;5054001;28;20274;-69
2022/08/04 10:05:19;;;;;;;;;;;16.50;99.90;;;;;;5053136;28;19921;-68
2022/08/04 10:08:01;;;;;;;;;;;16.50;99.90;;;;;;5053967;28;19909;-68
2022/08/04 10:10:28;;;;;;;;;;;16.50;99.90;;;;;;5053752;28;20359;-69
2022/08/04 10:12:55;;;;;;;;;;;16.50;99.90;;;;;;5053739;28;19916;-69
2022/08/04 10:15:33;;;;;;;;;;;16.60;99.90;;;;;;5053793;28;20413;-69
2022/08/04 10:18:18;;;;;;;;;;;16.70;99.90;;;;;;5053713;28;19935;-69
2022/08/04 10:20:48;;;;;;;;;;;16.70;99.90;;;;;;5052971;28;19909;-69
2022/08/04 10:23:17;;;;;;;;;;;16.70;99.90;;;;;;5053408;28;19913;-69
2022/08/04 10:25:56;;;;;;;;;;;16.70;99.90;;;;;;5053328;28;19952;-69
2022/08/04 10:28:24;;;;;;;;;;;16.70;99.90;;;;;;5053268;28;19908;-69
2022/08/04 10:30:57;;;;;;;;;;;16.70;99.90;;;;;;5053605;28;19944;-69
2022/08/04 10:33:41;;;;;;;;;;;16.70;99.90;;;;;;5053332;28;20351;-69
2022/08/04 10:36:09;;;;;;;;;;;16.70;99.90;;;;;;5052962;28;19947;-70
2022/08/04 10:38:49;;;;;;;;;;;16.70;99.90;;;;;;5053307;28;19999;-69
2022/08/04 10:41:25;;;;;;;;;;;16.70;99.90;;;;;;5053193;28;19940;-69
2022/08/04 10:43:54;;;;;;;;;;;16.70;99.90;;;;;;5053125;28;19919;-69
2022/08/04 10:46:25;;;;;;;;;;;16.70;99.90;;;;;;5053150;28;19921;-69
2022/08/04 10:49:01;;;;;;;;;;;16.80;99.90;;;;;;5053119;28;20045;-69
2022/08/04 10:51:49;;;;;;;;;;;16.80;99.90;;;;;;5053369;28;19909;-69
2022/08/04 10:54:19;;;;;;;;;;;16.80;99.90;;;;;;5052949;28;19909;-69
2022/08/04 10:56:56;;;;;;;;;;;16.80;99.90;;;;;;5052886;28;19955;-69
2022/08/04 10:59:27;;;;;;;;;;;16.80;99.90;;;;;;5053294;28;19909;-69
2022/08/04 11:01:59;;;;;;;;;;;16.80;99.90;;;;;;5053274;28;20348;-69
2022/08/04 11:04:31;;;;;;;;;;;16.90;99.90;;;;;;5052235;28;19917;-69
2022/08/04 11:06:59;;;;;;;;;;;16.90;99.90;;;;;;5053083;28;19924;-69
2022/08/04 11:09:27;;;;;;;;;;;17.00;99.90;;;;;;5053019;28;19909;-69
2022/08/04 11:11:56;;;;;;;;;;;17.00;99.90;;;;;;5052734;28;19915;-69
2022/08/04 11:14:26;;;;;;;;;;;17.00;99.90;;;;;;5052885;28;20356;-69
2022/08/04 11:16:55;;;;;;;;;;;17.00;99.90;;;;;;5052912;28;19948;-69
2022/08/04 11:19:25;;;;;;;;;;;17.00;99.90;;;;;;5052295;28;20367;-69
2022/08/04 11:22:08;;;;;;;;;;;17.00;99.90;;;;;;5052969;28;20377;-69
2022/08/04 11:24:53;;;;;;;;;;;17.00;99.90;;;;;;5052872;28;19916;-69
2022/08/04 11:27:38;;;;;;;;;;;17.00;99.90;;;;;;5053056;28;20066;-69
2022/08/04 11:30:06;;;;;;;;;;;17.00;99.90;;;;;;5052837;28;19908;-70
2022/08/04 11:32:45;;;;;;;;;;;17.00;99.90;;;;;;5053023;28;19913;-70
2022/08/04 11:35:24;;;;;;;;;;;17.00;99.90;;;;;;5052571;28;19908;-69
2022/08/04 11:38:20;;;;;;;;;;;17.00;99.90;;;;;;5052872;28;19970;-69
2022/08/04 11:40:49;;;;;;;;;;;17.00;99.90;;;;;;5033030;28;19996;-70
2022/08/04 11:43:18;;;;;;;;;;;17.10;99.90;;;;;;5052711;28;19909;-70
2022/08/04 11:45:50;;;;;;;;;;;17.10;99.90;;;;;;5052493;28;19967;-69
2022/08/04 11:48:22;;;;;;;;;;;17.10;99.90;;;;;;5052119;28;19909;-70
2022/08/04 11:50:53;;;;;;;;;;;17.10;99.90;;;;;;5052579;28;19913;-69
2022/08/04 11:53:22;;;;;;;;;;;17.10;99.90;;;;;;5052789;28;19996;-69
2022/08/04 11:55:51;;;;;;;;;;;17.10;99.90;;;;;;5052497;28;20318;-70
2022/08/04 11:58:19;;;;;;;;;;;17.10;99.90;;;;;;5051253;28;19909;-69
2022/08/04 12:01:04;;;;;;;;;;;17.10;99.90;;;;;;5052595;28;19909;-69
2022/08/04 12:03:31;;;;;;;;;;;17.10;99.90;;;;;;5051954;28;20271;-69
2022/08/04 12:06:18;;;;;;;;;;;17.00;99.90;;;;;;5052583;28;19955;-69
2022/08/04 12:08:51;;;;;;;;;;;17.00;99.90;;;;;;5052720;28;19915;-69
2022/08/04 12:11:35;;;;;;;;;;;17.00;99.90;;;;;;5056002;28;19909;-69
2022/08/04 12:14:02;;;;;;;;;;;17.00;99.90;;;;;;5055958;28;19936;-69
2022/08/04 12:16:47;;;;;;;;;;;17.00;99.90;;;;;;5056151;28;19909;-69
2022/08/04 12:19:22;;;;;;;;;;;17.00;99.90;;;;;;5055361;28;19919;-69
2022/08/04 12:21:54;;;;;;;;;;;17.00;99.90;;;;;;5056009;28;19983;-69
2022/08/04 12:24:23;;;;;;;;;;;17.00;99.90;;;;;;5055445;28;20419;-69
2022/08/04 12:26:55;;;;;;;;;;;17.00;99.90;;;;;;5055592;28;20394;-69
2022/08/04 12:29:23;;;;;;;;;;;16.90;99.90;;;;;;5055825;28;19909;-69
2022/08/04 12:32:04;;;;;;;;;;;16.90;99.90;;;;;;5055332;28;19920;-69
2022/08/04 12:35:05;;;;;;;;;;;16.90;99.90;;;;;;5055160;28;19963;-69
2022/08/04 12:37:32;;;;;;;;;;;16.90;99.90;;;;;;5033129;28;20461;-69
2022/08/04 12:40:01;;;;;;;;;;;16.90;99.90;;;;;;5051126;28;20374;-69
2022/08/04 12:42:35;;;;;;;;;;;16.90;99.90;;;;;;5055465;28;19909;-69
2022/08/04 12:45:05;;;;;;;;;;;16.90;99.90;;;;;;5055329;28;19921;-69
2022/08/04 12:47:34;;;;;;;;;;;17.00;99.90;;;;;;5054306;28;19909;-70
2022/08/04 12:50:02;;;;;;;;;;;16.90;99.90;;;;;;5055556;28;19908;-69
2022/08/04 12:52:35;;;;;;;;;;;16.90;99.90;;;;;;5055362;28;19915;-69
2022/08/04 12:55:02;;;;;;;;;;;17.00;99.90;;;;;;5055290;28;20406;-69
2022/08/04 12:57:33;;;;;;;;;;;17.00;99.90;;;;;;5055188;28;19920;-69
2022/08/04 12:59:59;;;;;;;;;;;17.00;99.90;;;;;;5055411;28;19912;-67
2022/08/04 13:02:37;;;;;;;;;;;17.00;99.90;;;;;;5054963;28;19913;-69
2022/08/04 13:05:06;;;;;;;;;;;17.00;99.90;;;;;;5055116;28;19916;-69
2022/08/04 13:07:38;;;;;;;;;;;16.90;99.90;;;;;;5055250;28;19916;-69
2022/08/04 13:10:14;;;;;;;;;;;16.90;99.90;;;;;;5055032;28;19909;-70
2022/08/04 13:12:42;;;;;;;;;;;16.90;99.90;;;;;;5054982;28;19909;-70
2022/08/04 13:15:16;;;;;;;;;;;16.90;99.90;;;;;;5055016;28;19916;-70
2022/08/04 13:17:52;;;;;;;;;;;16.90;99.90;;;;;;5055032;28;20315;-67
2022/08/04 13:20:25;;;;;;;;;;;16.90;99.90;;;;;;5054557;28;19909;-69
2022/08/04 13:22:57;;;;;;;;;;;16.90;99.90;;;;;;5054813;28;19909;-67
2022/08/04 13:25:26;;;;;;;;;;;16.90;99.90;;;;;;5054531;28;20359;-69
2022/08/04 13:27:53;;;;;;;;;;;16.90;99.90;;;;;;5054673;28;19951;-69
2022/08/04 13:30:21;;;;;;;;;;;16.90;99.90;;;;;;5054465;28;19913;-68
2022/08/04 13:32:51;;;;;;;;;;;16.90;99.90;;;;;;5054568;28;20075;-69
2022/08/04 13:35:18;;;;;;;;;;;16.90;99.90;;;;;;5054665;28;19908;-67
2022/08/04 13:37:45;;;;;;;;;;;16.90;99.90;;;;;;5054504;28;20011;-69
2022/08/04 13:40:13;;;;;;;;;;;16.90;99.90;;;;;;5054076;28;19927;-67
2022/08/04 13:42:41;;;;;;;;;;;16.90;99.90;;;;;;5054391;28;20313;-67
2022/08/04 13:45:08;;;;;;;;;;;16.90;99.90;;;;;;5054150;28;19924;-68
2022/08/04 13:47:36;;;;;;;;;;;17.00;99.90;;;;;;5054681;28;20373;-69
2022/08/04 13:50:26;;;;;;;;;;;17.00;99.90;;;;;;5054221;28;19913;-69
2022/08/04 13:52:54;;;;;;;;;;;17.00;99.90;;;;;;5054269;28;19913;-68
2022/08/04 13:55:31;;;;;;;;;;;17.00;99.90;;;;;;5053960;28;20477;-69
2022/08/04 13:58:08;;;;;;;;;;;17.00;99.90;;;;;;5054023;28;20410;-69
2022/08/04 14:00:42;;;;;;;;;;;17.00;99.90;;;;;;5054051;28;19913;-69
2022/08/04 14:03:11;;;;;;;;;;;17.00;99.90;;;;;;5054101;28;20038;-69
2022/08/04 14:05:37;;;;;;;;;;;17.00;99.90;;;;;;5053880;28;19917;-69
2022/08/04 14:08:04;;;;;;;;;;;17.00;99.90;;;;;;5053809;28;19913;-69
2022/08/04 14:10:31;;;;;;;;;;;17.00;99.90;;;;;;5053841;28;19909;-69
2022/08/04 14:12:58;;;;;;;;;;;17.00;99.90;;;;;;5053831;28;19909;-69
2022/08/04 14:15:39;;;;;;;;;;;17.00;99.90;;;;;;5053803;28;19909;-69
2022/08/04 14:18:19;;;;;;;;;;;17.00;99.90;;;;;;5053545;28;19912;-68
2022/08/04 14:21:03;;;;;;;;;;;17.00;99.90;;;;;;5053646;28;19915;-69
2022/08/04 14:23:37;;;;;;;;;;;17.00;99.90;;;;;;5053764;28;19909;-69
2022/08/04 14:26:16;;;;;;;;;;;17.00;99.90;;;;;;5053397;28;19920;-69
2022/08/04 14:28:43;;;;;;;;;;;17.00;99.90;;;;;;5053622;28;20006;-69
2022/08/04 14:31:12;;;;;;;;;;;17.00;99.90;;;;;;5053353;28;19955;-69
2022/08/04 14:33:40;;;;;;;;;;;17.00;99.90;;;;;;5053328;28;19962;-69
2022/08/04 14:36:07;;;;;;;;;;;17.00;99.90;;;;;;5053245;28;19908;-69
2022/08/04 14:38:45;;;;;;;;;;;17.00;99.90;;;;;;5053434;28;19959;-69
2022/08/04 14:41:12;;;;;;;;;;;17.00;99.90;;;;;;5053556;28;19913;-69
2022/08/04 14:43:42;;;;;;;;;;;17.00;99.90;;;;;;5053138;28;19909;-68
2022/08/04 14:46:09;;;;;;;;;;;17.00;99.90;;;;;;5053119;28;19925;-69
2022/08/04 14:48:36;;;;;;;;;;;16.90;99.90;;;;;;5053403;28;19908;-69
2022/08/04 14:51:03;;;;;;;;;;;17.00;99.90;;;;;;5053284;28;19958;-69
2022/08/04 14:53:30;;;;;;;;;;;16.90;99.90;;;;;;5053237;28;19917;-69
2022/08/04 14:56:00;;;;;;;;;;;17.00;99.90;;;;;;5053229;28;19909;-69
2022/08/04 14:58:28;;;;;;;;;;;17.00;99.90;;;;;;5053235;28;19909;-69
2022/08/04 15:00:56;;;;;;;;;;;17.00;99.90;;;;;;5053117;28;19909;-69
2022/08/04 15:03:24;;;;;;;;;;;17.00;99.90;;;;;;5053282;28;19921;-69